Time;durP1;ratioP1;P1;durP2;ratioP2;P2;SDS_P1;SDS_P2;PMS_P1;PMS_P2;Temp;Humidity;BMP_temperature;BMP_pressure;BME280_temperature;BME280_humidity;BME280_pressure;Samples;Min_cycle;Max_cycle;Signal;HPM_P1;HPM_P2
2021/04/07 00:02:22;;;;;;;13.80;4.27;;;;;;;1.82;75.75;100576.53;6216373;28;22108;-53
2021/04/07 00:05:44;;;;;;;10.57;4.30;;;;;;;1.59;76.85;100573.47;6211641;28;20320;-50
2021/04/07 00:09:06;;;;;;;8.87;4.37;;;;;;;1.90;74.71;100567.34;6206426;28;20244;-52
2021/04/07 00:12:26;;;;;;;12.73;2.90;;;;;;;2.07;74.03;100577.09;6233684;28;20304;-47
2021/04/07 00:15:46;;;;;;;7.10;2.53;;;;;;;1.91;73.74;100575.91;6214587;28;20233;-52
2021/04/07 00:19:08;;;;;;;6.50;3.20;;;;;;;1.89;73.46;100578.44;6220506;28;20236;-50
2021/04/07 00:22:28;;;;;;;9.87;5.47;;;;;;;1.87;73.33;100574.97;6229631;28;20224;-50
2021/04/07 00:25:49;;;;;;;7.60;2.40;;;;;;;1.77;72.60;100578.16;6230045;28;20778;-47
2021/04/07 00:29:10;;;;;;;11.57;4.60;;;;;;;2.09;71.53;100567.72;6212687;28;20236;-53
2021/04/07 00:32:31;;;;;;;7.70;2.83;;;;;;;1.71;72.98;100572.91;6216402;28;20256;-50
2021/04/07 00:35:51;;;;;;;10.63;4.27;;;;;;;1.87;71.89;100577.53;6215027;28;20666;-49
2021/04/07 00:39:12;;;;;;;10.33;3.87;;;;;;;1.78;71.64;100587.59;6218287;28;20241;-50
2021/04/07 00:42:34;;;;;;;11.27;3.50;;;;;;;1.64;72.74;100581.28;6216376;28;20885;-51
2021/04/07 00:45:54;;;;;;;9.23;4.23;;;;;;;1.90;71.90;100590.47;6216832;28;20236;-53
2021/04/07 00:49:15;;;;;;;10.63;3.03;;;;;;;1.76;72.47;100590.16;6232820;28;20252;-53
2021/04/07 00:52:36;;;;;;;7.83;3.13;;;;;;;1.94;71.12;100586.25;6227539;28;20241;-52
2021/04/07 00:55:57;;;;;;;7.30;2.70;;;;;;;1.61;72.77;100586.31;6237648;28;20747;-52
2021/04/07 00:59:20;;;;;;;7.27;3.30;;;;;;;1.83;72.20;100595.41;6228263;28;20240;-51
2021/04/07 01:02:41;;;;;;;10.27;2.57;;;;;;;1.39;73.52;100588.38;6215971;28;20304;-51
2021/04/07 01:06:02;;;;;;;8.63;3.93;;;;;;;1.56;73.41;100589.66;6221182;28;20308;-49
2021/04/07 01:09:22;;;;;;;9.20;2.53;;;;;;;1.56;73.26;100584.53;6223404;28;20923;-52
2021/04/07 01:12:43;;;;;;;13.17;5.33;;;;;;;1.41;74.34;100591.00;6202088;28;20233;-51
2021/04/07 01:16:06;;;;;;;9.50;3.50;;;;;;;1.26;75.00;100589.78;6219901;28;20237;-51
2021/04/07 01:19:26;;;;;;;7.37;2.60;;;;;;;1.43;73.35;100591.88;6227839;28;20332;-47
2021/04/07 01:22:51;;;;;;;17.40;4.80;;;;;;;1.27;74.57;100596.63;6222625;28;20236;-50
2021/04/07 01:26:13;;;;;;;6.50;2.90;;;;;;;1.35;73.97;100594.28;6219867;28;20225;-50
2021/04/07 01:29:33;;;;;;;13.73;3.57;;;;;;;1.47;74.23;100598.84;6208715;28;20309;-50
2021/04/07 01:32:54;;;;;;;16.73;5.27;;;;;;;1.53;74.38;100594.72;6222604;28;20221;-51
2021/04/07 01:36:14;;;;;;;11.20;3.20;;;;;;;1.83;73.05;100608.25;6210500;28;20228;-53
2021/04/07 01:39:35;;;;;;;13.27;3.43;;;;;;;1.52;74.28;100607.53;6241664;28;20233;-55
2021/04/07 01:42:56;;;;;;;16.57;3.93;;;;;;;1.54;74.44;100605.84;6212606;28;20236;-52
2021/04/07 01:46:17;;;;;;;9.87;3.20;;;;;;;1.56;73.99;100599.91;6230375;28;20229;-53
2021/04/07 01:49:38;;;;;;;17.23;3.80;;;;;;;1.23;74.73;100604.22;6231027;28;20232;-51
2021/04/07 01:52:59;;;;;;;14.27;3.20;;;;;;;1.38;74.21;100613.19;6224230;28;20245;-49
2021/04/07 01:56:19;;;;;;;9.60;3.20;;;;;;;1.48;74.03;100603.16;6213722;28;20881;-56
2021/04/07 01:59:40;;;;;;;8.00;3.40;;;;;;;1.25;74.29;100595.75;6219187;28;20251;-54
2021/04/07 02:03:02;;;;;;;14.07;4.77;;;;;;;1.36;73.75;100596.88;6212098;28;20236;-47
2021/04/07 02:06:23;;;;;;;11.57;3.37;;;;;;;1.25;74.09;100600.00;6207452;28;20233;-51
2021/04/07 02:09:44;;;;;;;11.33;4.00;;;;;;;1.15;74.69;100604.91;6213296;28;20801;-51
2021/04/07 02:13:05;;;;;;;10.53;3.13;;;;;;;1.13;74.89;100615.94;6222568;28;20228;-51
2021/04/07 02:16:27;;;;;;;12.43;3.00;;;;;;;1.31;73.98;100612.97;6220183;28;20228;-50
2021/04/07 02:19:47;;;;;;;7.57;2.63;;;;;;;1.26;74.01;100606.84;6229510;28;20264;-55
2021/04/07 02:23:08;;;;;;;8.47;2.73;;;;;;;1.04;74.98;100608.00;6227616;28;20610;-50
2021/04/07 02:26:28;;;;;;;9.97;2.70;;;;;;;1.31;74.62;100613.84;6224454;28;20501;-50
2021/04/07 02:29:51;;;;;;;9.83;2.93;;;;;;;1.07;74.70;100616.66;6208253;28;20619;-51
2021/04/07 02:33:12;;;;;;;12.30;4.27;;;;;;;1.43;74.08;100615.84;6215496;28;21066;-51
2021/04/07 02:36:33;;;;;;;11.83;3.03;;;;;;;1.24;75.28;100611.97;6210264;28;20225;-50
2021/04/07 02:39:53;;;;;;;9.87;2.90;;;;;;;1.28;74.78;100615.47;6216656;28;20240;-53
2021/04/07 02:43:14;;;;;;;11.77;3.27;;;;;;;1.32;74.60;100617.31;6226641;28;20311;-51
2021/04/07 02:46:34;;;;;;;8.73;3.87;;;;;;;1.61;72.89;100625.72;6230549;28;20252;-53
2021/04/07 02:49:56;;;;;;;6.87;2.23;;;;;;;1.82;72.48;100609.94;6220741;28;20657;-53
2021/04/07 02:53:16;;;;;;;12.97;3.17;;;;;;;1.55;72.64;100616.16;6223729;28;20240;-52
2021/04/07 02:56:37;;;;;;;13.30;2.53;;;;;;;1.53;73.15;100629.78;6221059;28;20221;-53
2021/04/07 02:59:57;;;;;;;7.97;3.70;;;;;;;1.53;72.29;100627.22;6216780;28;20233;-51
2021/04/07 03:03:18;;;;;;;9.00;2.87;;;;;;;1.44;72.39;100629.56;6235239;28;20252;-51
2021/04/07 03:06:39;;;;;;;13.07;3.73;;;;;;;1.57;72.88;100621.31;6229889;28;20244;-54
2021/04/07 03:09:59;;;;;;;8.90;2.67;;;;;;;1.18;73.38;100628.06;6214693;28;21213;-49
2021/04/07 03:13:20;;;;;;;10.40;3.40;;;;;;;1.53;72.75;100624.63;6225636;28;20230;-51
2021/04/07 03:16:40;;;;;;;8.43;3.47;;;;;;;1.18;73.64;100628.06;6210920;28;20229;-51
2021/04/07 03:20:01;;;;;;;9.53;4.53;;;;;;;1.17;73.60;100622.91;6222854;28;20237;-50
2021/04/07 03:23:22;;;;;;;10.43;4.37;;;;;;;1.33;73.17;100627.56;6239247;28;20236;-51
2021/04/07 03:26:43;;;;;;;9.00;2.80;;;;;;;1.10;73.76;100623.56;6236780;28;20590;-48
2021/04/07 03:30:05;;;;;;;12.80;3.63;;;;;;;1.06;73.43;100632.00;6213668;28;20233;-53
2021/04/07 03:33:28;;;;;;;12.63;3.60;;;;;;;0.94;73.63;100628.28;6220938;28;20233;-51
2021/04/07 03:36:49;;;;;;;11.10;2.87;;;;;;;0.98;74.28;100618.97;6227542;28;20252;-49
2021/04/07 03:40:11;;;;;;;9.87;3.53;;;;;;;0.79;73.87;100630.41;6233163;28;20614;-52
2021/04/07 03:43:32;;;;;;;5.27;2.27;;;;;;;0.57;74.88;100644.34;6225891;28;20240;-50
2021/04/07 03:46:53;;;;;;;10.10;3.20;;;;;;;0.75;74.25;100637.16;6219847;28;20761;-53
2021/04/07 03:50:13;;;;;;;7.70;3.07;;;;;;;0.80;74.23;100639.00;6229987;28;20463;-50
2021/04/07 03:53:34;;;;;;;18.80;5.53;;;;;;;0.73;74.38;100636.25;6225433;28;20308;-51
2021/04/07 03:56:56;;;;;;;11.53;3.40;;;;;;;0.83;73.68;100645.06;6224882;28;20224;-52
2021/04/07 04:00:17;;;;;;;7.37;3.17;;;;;;;0.82;73.89;100637.34;6218874;28;20229;-55
2021/04/07 04:03:37;;;;;;;15.37;4.50;;;;;;;0.78;73.89;100646.66;6221430;28;20240;-55
2021/04/07 04:06:58;;;;;;;7.50;2.83;;;;;;;1.03;73.04;100644.72;6232451;28;20256;-51
2021/04/07 04:10:18;;;;;;;13.20;4.17;;;;;;;0.80;74.15;100645.00;6213324;28;20236;-48
2021/04/07 04:13:40;;;;;;;10.63;4.10;;;;;;;0.79;73.94;100650.94;6217791;28;20638;-49
2021/04/07 04:17:00;;;;;;;10.73;3.33;;;;;;;0.80;74.01;100664.63;6221061;28;20698;-49
2021/04/07 04:20:21;;;;;;;9.30;3.00;;;;;;;0.82;73.78;100648.47;6221704;28;20237;-54
2021/04/07 04:23:43;;;;;;;12.63;3.87;;;;;;;0.87;73.34;100649.44;6221969;28;20240;-51
2021/04/07 04:27:04;;;;;;;11.20;3.13;;;;;;;0.86;73.41;100654.53;6212760;28;20229;-51
2021/04/07 04:30:27;;;;;;;7.97;2.83;;;;;;;0.59;74.27;100661.50;6214887;28;20237;-52
2021/04/07 04:33:47;;;;;;;10.37;4.33;;;;;;;0.91;73.36;100655.53;6240222;28;20229;-53
2021/04/07 04:37:08;;;;;;;14.63;5.40;;;;;;;0.86;73.71;100664.81;6235408;28;20224;-52
2021/04/07 04:40:29;;;;;;;10.43;3.53;;;;;;;0.83;74.37;100670.69;6226810;28;20229;-49
2021/04/07 04:43:49;;;;;;;13.27;4.87;;;;;;;0.75;73.52;100673.03;6215208;28;20498;-48
2021/04/07 04:47:11;;;;;;;9.80;4.57;;;;;;;0.61;74.58;100676.06;6210830;28;20249;-54
2021/04/07 04:50:31;;;;;;;9.40;3.97;;;;;;;0.90;73.75;100675.19;6231385;28;20259;-53
2021/04/07 04:53:52;;;;;;;11.30;3.70;;;;;;;0.68;74.78;100685.63;6216638;28;20236;-48
2021/04/07 04:57:13;;;;;;;10.27;4.00;;;;;;;0.69;74.86;100682.25;6211561;28;20233;-53
2021/04/07 05:00:33;;;;;;;22.07;6.23;;;;;;;0.84;74.62;100681.84;6209421;28;20238;-52
2021/04/07 05:03:54;;;;;;;11.23;5.57;;;;;;;0.76;74.62;100682.47;6219186;28;20233;-50
2021/04/07 05:07:15;;;;;;;14.30;5.20;;;;;;;0.90;73.84;100690.56;6211007;28;20237;-53
2021/04/07 05:10:35;;;;;;;7.07;4.13;;;;;;;0.62;74.97;100690.59;6221827;28;20236;-53
2021/04/07 05:13:56;;;;;;;9.93;4.83;;;;;;;0.81;74.47;100681.75;6222565;28;20229;-53
2021/04/07 05:17:16;;;;;;;8.43;4.73;;;;;;;0.68;75.33;100695.88;6211751;28;20514;-54
2021/04/07 05:20:38;;;;;;;12.10;5.83;;;;;;;0.64;74.88;100691.50;6210226;28;20229;-54
2021/04/07 05:23:58;;;;;;;14.03;4.97;;;;;;;0.79;75.11;100709.91;6218777;28;20233;-49
2021/04/07 05:27:19;;;;;;;9.67;4.20;;;;;;;0.69;75.52;100708.75;6210882;28;20245;-52
2021/04/07 05:34:14;;;;;;;9.30;5.63;;;;;;;0.92;74.58;100708.56;6212434;28;20232;-50
2021/04/07 05:37:35;;;;;;;13.47;4.83;;;;;;;0.59;76.40;100711.88;6229085;28;20883;-54
2021/04/07 05:40:57;;;;;;;20.50;6.33;;;;;;;0.93;74.71;100697.47;6217816;28;20233;-51
2021/04/07 05:44:18;;;;;;;11.77;3.47;;;;;;;0.56;75.91;100702.41;6207104;28;20229;-51
2021/04/07 05:47:39;;;;;;;12.53;4.03;;;;;;;1.02;74.51;100717.38;6213447;28;20361;-50
2021/04/07 05:51:00;;;;;;;13.87;4.33;;;;;;;0.68;75.37;100729.22;6217590;28;20232;-51
2021/04/07 05:54:21;;;;;;;8.37;4.00;;;;;;;1.08;74.41;100717.56;6198258;28;20244;-50
2021/04/07 05:57:42;;;;;;;8.40;4.40;;;;;;;0.86;75.55;100739.16;6218501;28;20611;-50
2021/04/07 06:01:02;;;;;;;8.70;3.57;;;;;;;0.71;75.68;100713.94;6213780;28;20257;-49
2021/04/07 06:04:23;;;;;;;17.73;8.00;;;;;;;1.02;75.39;100718.25;6210773;28;20233;-48
2021/04/07 06:07:44;;;;;;;12.27;5.20;;;;;;;1.31;74.48;100725.88;6212314;28;20662;-55
2021/04/07 06:11:06;;;;;;;16.37;6.47;;;;;;;1.56;73.63;100732.53;6206109;28;20261;-55
2021/04/07 06:14:27;;;;;;;9.47;4.43;;;;;;;0.92;75.07;100737.63;6210533;28;20260;-49
2021/04/07 06:17:54;;;;;;;5.47;3.50;;;;;;;0.91;74.27;100750.41;6214602;28;20689;-53
2021/04/07 06:21:14;;;;;;;9.53;4.33;;;;;;;1.81;72.32;100738.31;6222100;28;20260;-54
2021/04/07 06:24:35;;;;;;;10.27;3.50;;;;;;;1.86;71.34;100741.84;6204871;28;20237;-50
2021/04/07 06:27:58;;;;;;;11.17;5.23;;;;;;;1.62;72.03;100726.69;6214387;28;20581;-52
2021/04/07 06:31:18;;;;;;;13.53;3.83;;;;;;;1.66;72.29;100749.03;6215799;28;20232;-54
2021/04/07 06:34:38;;;;;;;4.80;3.00;;;;;;;1.82;72.11;100751.16;6212179;28;20233;-53
2021/04/07 06:38:00;;;;;;;5.70;3.00;;;;;;;1.35;73.52;100751.66;6201956;28;20225;-53
2021/04/07 06:41:21;;;;;;;5.73;3.00;;;;;;;1.38;73.20;100756.88;6220404;28;20233;-55
2021/04/07 06:44:42;;;;;;;8.70;5.77;;;;;;;1.56;72.73;100747.94;6216721;28;20236;-49
2021/04/07 06:48:03;;;;;;;8.97;5.23;;;;;;;1.24;73.38;100750.50;6215947;28;20237;-51
2021/04/07 06:51:25;;;;;;;9.00;5.70;;;;;;;1.57;72.33;100739.38;6196023;28;20225;-54
2021/04/07 06:54:47;;;;;;;8.63;5.67;;;;;;;1.22;73.39;100756.41;6210792;28;20311;-54
2021/04/07 06:58:09;;;;;;;7.23;4.20;;;;;;;1.17;74.03;100762.28;6218974;28;20691;-52
2021/04/07 07:01:31;;;;;;;7.03;4.00;;;;;;;0.65;75.56;100765.03;6214291;28;20229;-52
2021/04/07 07:04:51;;;;;;;6.60;3.37;;;;;;;1.10;75.14;100759.50;6213563;28;20229;-53
2021/04/07 07:08:14;;;;;;;8.63;4.97;;;;;;;1.08;75.17;100769.72;6211779;28;20229;-53
2021/04/07 07:11:35;;;;;;;7.23;3.10;;;;;;;1.10;74.64;100770.63;6200145;28;20232;-54
2021/04/07 07:14:56;;;;;;;5.70;3.37;;;;;;;1.06;74.45;100766.22;6221303;28;20237;-53
2021/04/07 07:18:21;;;;;;;6.47;2.50;;;;;;;1.05;74.88;100772.19;6210160;28;20225;-55
2021/04/07 07:21:49;;;;;;;6.77;2.70;;;;;;;1.04;75.35;100773.00;6217026;28;20232;-55
2021/04/07 07:25:10;;;;;;;3.67;3.37;;;;;;;1.52;73.52;100782.06;6218346;28;20513;-52
2021/04/07 07:28:39;;;;;;;9.93;3.60;;;;;;;0.77;76.34;100780.75;6213133;28;20225;-51
2021/04/07 07:32:02;;;;;;;4.43;4.03;;;;;;;1.02;75.27;100778.94;6212023;28;20243;-56
2021/04/07 07:35:23;;;;;;;6.73;5.00;;;;;;;1.21;75.47;100785.47;6219181;28;20233;-54
2021/04/07 07:38:45;;;;;;;5.20;3.93;;;;;;;1.63;74.82;100775.53;6211205;28;20221;-56
2021/04/07 07:42:08;;;;;;;9.20;5.67;;;;;;;1.61;73.56;100782.31;6213051;28;20978;-50
2021/04/07 07:45:31;;;;;;;13.37;5.97;;;;;;;1.52;74.71;100787.19;6207580;28;20233;-54
2021/04/07 07:48:51;;;;;;;10.07;6.53;;;;;;;1.85;73.99;100774.38;6224554;28;20514;-52
2021/04/07 07:52:13;;;;;;;11.13;8.30;;;;;;;1.64;73.98;100777.25;6228975;28;20235;-51
2021/04/07 07:55:38;;;;;;;12.97;8.93;;;;;;;1.84;73.56;100789.72;6216030;28;20241;-52
2021/04/07 07:58:59;;;;;;;13.10;11.03;;;;;;;1.99;73.37;100782.41;6221932;28;20266;-55
2021/04/07 08:02:24;;;;;;;11.37;8.97;;;;;;;1.67;74.51;100797.88;6215905;28;20772;-53
2021/04/07 08:05:45;;;;;;;15.60;10.97;;;;;;;1.50;75.95;100789.72;6211175;28;20217;-55
2021/04/07 08:09:09;;;;;;;15.30;10.77;;;;;;;1.97;74.19;100796.94;6214300;28;20650;-52
2021/04/07 08:16:49;;;;;;;12.70;10.17;;;;;;;2.26;72.85;100795.09;6201851;28;20229;-50
2021/04/07 08:20:11;;;;;;;15.67;8.63;;;;;;;2.47;72.79;100789.59;6224967;28;20237;-51
2021/04/07 08:23:35;;;;;;;8.17;7.33;;;;;;;2.30;73.13;100801.16;6226795;28;20233;-57
2021/04/07 08:26:58;;;;;;;10.93;8.17;;;;;;;1.81;74.26;100805.06;6206775;28;20225;-54
2021/04/07 08:30:19;;;;;;;8.73;6.40;;;;;;;1.94;74.22;100796.88;6212861;28;20233;-55
2021/04/07 08:33:45;;;;;;;9.67;5.97;;;;;;;1.72;75.57;100791.16;6234658;28;20228;-53
2021/04/07 08:37:05;;;;;;;9.17;5.87;;;;;;;1.82;75.11;100796.53;6212528;28;20233;-54
2021/04/07 08:40:37;;;;;;;4.53;4.07;;;;;;;1.92;75.04;100803.63;6221885;28;20236;-51
2021/04/07 08:44:00;;;;;;;8.40;5.07;;;;;;;1.86;75.60;100793.22;6236331;28;20236;-51
2021/04/07 08:47:25;;;;;;;7.43;4.20;;;;;;;1.97;74.43;100796.94;6222109;28;20229;-54
2021/04/07 08:50:48;;;;;;;7.67;4.50;;;;;;;1.90;75.79;100795.03;6213791;28;20228;-52
2021/04/07 08:54:09;;;;;;;9.43;5.77;;;;;;;2.26;74.48;100805.38;6225279;28;20497;-55
2021/04/07 08:57:31;;;;;;;10.17;5.70;;;;;;;1.82;75.91;100811.94;6220064;28;20224;-52
2021/04/07 09:00:56;;;;;;;7.23;4.67;;;;;;;1.86;76.27;100811.19;6204729;28;20634;-54
2021/04/07 09:04:19;;;;;;;6.50;4.23;;;;;;;2.25;75.14;100810.47;6227969;28;20232;-52
2021/04/07 09:07:41;;;;;;;9.67;6.47;;;;;;;2.15;75.97;100812.81;6219466;28;20233;-52
2021/04/07 09:11:01;;;;;;;8.33;5.13;;;;;;;2.26;75.17;100812.22;6221495;28;20221;-54
2021/04/07 09:14:22;;;;;;;7.13;6.53;;;;;;;2.33;74.59;100821.81;6217292;28;20229;-51
2021/04/07 09:17:45;;;;;;;5.93;4.50;;;;;;;2.15;75.54;100823.09;6211624;28;20229;-56
2021/04/07 09:21:08;;;;;;;10.07;7.70;;;;;;;2.47;74.22;100819.56;6225552;28;20244;-55
2021/04/07 09:24:42;;;;;;;8.10;7.30;;;;;;;2.52;74.20;100823.09;6214265;28;20244;-54
2021/04/07 09:28:04;;;;;;;8.80;7.13;;;;;;;2.64;73.92;100818.28;6204832;28;20236;-55
2021/04/07 09:31:28;;;;;;;8.97;8.00;;;;;;;2.87;73.24;100812.75;6209783;28;20904;-57
2021/04/07 09:34:50;;;;;;;11.53;7.47;;;;;;;3.31;71.77;100799.97;6212128;28;20233;-54
2021/04/07 09:38:14;;;;;;;8.63;6.23;;;;;;;2.85;73.11;100801.56;6223553;28;20903;-60
2021/04/07 09:41:37;;;;;;;6.90;6.17;;;;;;;2.79;73.42;100806.59;6216118;28;20232;-55
2021/04/07 09:44:58;;;;;;;6.77;5.97;;;;;;;2.99;73.58;100814.78;6211346;28;20571;-55
2021/04/07 09:48:18;;;;;;;9.40;8.50;;;;;;;3.03;72.88;100814.84;6240047;28;20237;-58
2021/04/07 09:51:43;;;;;;;8.13;7.33;;;;;;;3.04;73.09;100802.84;6223259;28;20269;-53
2021/04/07 09:55:04;;;;;;;6.50;4.30;;;;;;;2.52;73.81;100813.72;6219137;28;20237;-55
2021/04/07 09:58:25;;;;;;;7.60;4.47;;;;;;;2.55;74.11;100808.63;6215442;28;20229;-55
2021/04/07 10:01:46;;;;;;;6.63;5.73;;;;;;;2.85;74.65;100811.88;6203222;28;20316;-57
2021/04/07 10:05:07;;;;;;;5.87;5.27;;;;;;;2.81;73.35;100805.81;6493423;22;20521;-54
2021/04/07 10:08:28;;;;;;;5.87;5.30;;;;;;;3.01;73.61;100806.25;6219070;28;20232;-56
2021/04/07 10:11:49;;;;;;;5.57;5.17;;;;;;;2.90;73.75;100795.69;6245243;28;20264;-55
2021/04/07 10:15:10;;;;;;;4.60;4.30;;;;;;;2.96;73.67;100810.41;6227919;28;20838;-55
2021/04/07 10:18:31;;;;;;;5.40;4.90;;;;;;;3.72;70.79;100800.81;6227146;28;20607;-55
2021/04/07 10:21:58;;;;;;;7.47;5.63;;;;;;;4.42;68.40;100787.38;6229332;28;20237;-57
2021/04/07 10:25:22;;;;;;;5.87;5.37;;;;;;;4.56;67.89;100791.91;6231502;28;20512;-54
2021/04/07 10:28:55;;;;;;;5.30;4.90;;;;;;;4.75;66.61;100801.63;6231331;28;20715;-55
2021/04/07 10:32:17;;;;;;;4.43;4.13;;;;;;;4.31;68.66;100788.94;6228109;28;20264;-55
2021/04/07 10:35:39;;;;;;;4.00;3.50;;;;;;;5.46;65.00;100784.47;6233225;28;20229;-52
2021/04/07 10:39:11;;;;;;;3.67;3.37;;;;;;;4.41;67.86;100783.06;6226150;28;20228;-55
2021/04/07 10:42:32;;;;;;;4.00;3.70;;;;;;;5.44;65.02;100781.84;6234419;28;20512;-54
2021/04/07 10:45:57;;;;;;;3.33;3.03;;;;;;;4.27;68.15;100800.03;6226891;28;20633;-53
2021/04/07 10:49:18;;;;;;;6.87;4.67;;;;;;;4.34;67.78;100792.44;6238582;28;20232;-55
2021/04/07 10:52:40;;;;;;;5.63;4.13;;;;;;;5.08;67.69;100784.88;6232067;28;20248;-53
2021/04/07 10:56:01;;;;;;;4.50;3.37;;;;;;;5.17;66.39;100771.22;6239395;28;20489;-55
2021/04/07 10:59:27;;;;;;;4.23;3.80;;;;;;;5.58;64.87;100778.56;6231651;28;20252;-55
2021/04/07 11:02:47;;;;;;;3.97;3.00;;;;;;;4.78;67.37;100783.59;6226583;28;20236;-55
2021/04/07 11:06:08;;;;;;;3.30;3.00;;;;;;;5.10;67.33;100785.78;6232940;28;20297;-55
2021/04/07 11:09:32;;;;;;;3.93;2.77;;;;;;;4.72;67.74;100786.09;6231598;28;20223;-56
2021/04/07 11:12:54;;;;;;;3.90;3.13;;;;;;;5.02;67.73;100777.94;6218623;28;20247;-57
2021/04/07 11:16:16;;;;;;;4.00;3.53;;;;;;;5.68;66.41;100781.28;6243090;28;20488;-58
2021/04/07 11:19:38;;;;;;;3.77;2.73;;;;;;;5.58;66.34;100778.56;6231078;28;20236;-59
2021/04/07 11:22:59;;;;;;;4.03;2.93;;;;;;;5.55;66.29;100778.56;6235296;28;20229;-56
2021/04/07 11:26:19;;;;;;;3.73;2.47;;;;;;;6.06;64.03;100773.03;6226500;28;20315;-57
2021/04/07 11:29:40;;;;;;;4.47;2.20;;;;;;;6.08;63.75;100763.56;6231392;28;20708;-58
2021/04/07 11:33:05;;;;;;;3.93;3.43;;;;;;;5.38;67.49;100779.22;6226287;28;20618;-56
2021/04/07 11:36:40;;;;;;;3.70;3.33;;;;;;;5.73;67.02;100777.00;6225596;28;20229;-56
2021/04/07 11:40:05;;;;;;;5.57;3.07;;;;;;;5.73;68.22;100774.41;6226875;28;20228;-53
2021/04/07 11:43:28;;;;;;;5.07;3.63;;;;;;;5.44;69.78;100781.00;6231017;28;20240;-53
2021/04/07 11:46:48;;;;;;;3.47;3.03;;;;;;;5.33;70.28;100778.28;6214772;28;20245;-54
2021/04/07 11:50:11;;;;;;;4.33;3.90;;;;;;;5.07;71.15;100780.56;6226234;28;20228;-54
2021/04/07 11:53:32;;;;;;;4.03;2.90;;;;;;;5.14;73.32;100782.38;6233735;28;20240;-55
2021/04/07 11:56:52;;;;;;;4.80;3.40;;;;;;;5.07;73.55;100788.28;6230965;28;20229;-54
2021/04/07 12:00:14;;;;;;;4.33;2.67;;;;;;;4.92;73.71;100781.22;6220361;28;20229;-55
2021/04/07 12:03:35;;;;;;;2.80;2.60;;;;;;;5.25;73.06;100782.50;6226683;28;20248;-55
2021/04/07 12:06:56;;;;;;;3.17;2.87;;;;;;;5.19;73.28;100777.25;6227790;28;20232;-57
2021/04/07 12:10:17;;;;;;;2.77;2.47;;;;;;;5.23;73.83;100785.06;6229354;28;20228;-55
2021/04/07 12:13:37;;;;;;;4.07;2.23;;;;;;;4.93;74.95;100788.13;6222979;28;20565;-56
2021/04/07 12:16:57;;;;;;;2.93;2.57;;;;;;;6.25;71.63;100779.22;6221464;28;20237;-56
2021/04/07 12:20:18;;;;;;;4.37;2.23;;;;;;;5.70;72.92;100784.75;6227818;28;20578;-54
2021/04/07 12:23:40;;;;;;;2.93;2.17;;;;;;;6.16;70.46;100783.47;6232306;28;20643;-55
2021/04/07 12:27:00;;;;;;;2.10;1.97;;;;;;;9.26;60.71;100768.56;6232646;28;20229;-55
2021/04/07 12:30:22;;;;;;;4.37;1.90;;;;;;;7.14;67.02;100776.34;6233576;28;20225;-54
2021/04/07 12:33:49;;;;;;;2.80;2.60;;;;;;;8.01;63.89;100770.50;6227587;28;20617;-53
2021/04/07 12:37:10;;;;;;;4.93;2.50;;;;;;;7.53;65.26;100779.94;6229063;28;20229;-53
2021/04/07 12:40:30;;;;;;;7.30;3.63;;;;;;;6.66;68.66;100790.75;6225510;28;20657;-53
2021/04/07 12:43:51;;;;;;;6.43;3.50;;;;;;;7.05;66.53;100771.09;6230525;28;20248;-53
2021/04/07 12:47:12;;;;;;;5.87;3.40;;;;;;;7.73;65.24;100773.94;6226336;28;20233;-53
2021/04/07 12:50:32;;;;;;;5.13;2.63;;;;;;;7.61;64.51;100760.06;6238618;28;20225;-50
2021/04/07 12:53:53;;;;;;;10.77;3.23;;;;;;;10.03;57.43;100755.09;6224989;28;20236;-53
2021/04/07 12:57:16;;;;;;;7.03;2.70;;;;;;;8.84;59.40;100749.69;6236432;28;20327;-50
2021/04/07 13:00:36;;;;;;;8.97;3.97;;;;;;;8.01;63.42;100757.53;6224002;28;20232;-54
2021/04/07 13:03:57;;;;;;;6.43;2.00;;;;;;;7.72;63.04;100761.84;6231518;28;20220;-52
2021/04/07 13:07:17;;;;;;;12.10;4.93;;;;;;;8.08;62.97;100759.28;6235096;28;21088;-54
2021/04/07 13:10:38;;;;;;;9.43;2.53;;;;;;;9.96;56.35;100752.56;6235968;28;20228;-53
2021/04/07 13:14:00;;;;;;;10.27;2.60;;;;;;;12.99;47.84;100736.25;6225982;28;20232;-53
2021/04/07 13:17:20;;;;;;;16.17;3.07;;;;;;;10.08;54.43;100747.28;6231155;28;20229;-56
2021/04/07 13:20:41;;;;;;;9.97;3.23;;;;;;;9.96;55.74;100748.22;6230786;28;20682;-57
2021/04/07 13:24:01;;;;;;;8.20;2.60;;;;;;;9.76;54.94;100743.16;6242052;28;20328;-57
2021/04/07 13:27:23;;;;;;;12.17;3.30;;;;;;;8.55;55.91;100743.69;6230790;28;20324;-53
2021/04/07 13:30:46;;;;;;;12.50;3.33;;;;;;;8.45;56.44;100754.09;6230178;28;20319;-55
2021/04/07 13:34:07;;;;;;;7.33;2.80;;;;;;;12.03;46.88;100744.09;6233532;28;20224;-54
2021/04/07 13:37:39;;;;;;;11.57;3.13;;;;;;;10.68;47.20;100775.38;6232379;28;20235;-58
2021/04/07 13:41:19;;;;;;;7.40;2.23;;;;;;;10.83;47.79;100762.19;6231363;28;20379;-56
2021/04/07 13:44:40;;;;;;;8.80;3.00;;;;;;;12.63;43.50;100745.69;6228916;28;20720;-56
2021/04/07 13:48:09;;;;;;;9.53;3.00;;;;;;;12.80;41.76;100758.44;6228095;28;20652;-55
2021/04/07 13:51:30;;;;;;;9.87;3.40;;;;;;;11.47;44.50;100756.22;6233703;28;20232;-56
2021/04/07 13:54:51;;;;;;;8.57;2.57;;;;;;;13.43;40.07;100738.84;6210159;28;20228;-55
2021/04/07 13:58:12;;;;;;;5.73;1.97;;;;;;;12.36;42.02;100742.66;6233744;28;20224;-56
2021/04/07 14:01:33;;;;;;;9.70;3.53;;;;;;;12.12;42.69;100774.44;6208540;28;20236;-55
2021/04/07 14:04:54;;;;;;;7.70;2.70;;;;;;;11.94;43.21;100771.22;6222689;28;20241;-52
2021/04/07 14:08:17;;;;;;;7.80;2.47;;;;;;;10.10;47.51;100797.56;6222070;28;20613;-54
2021/04/07 14:11:37;;;;;;;14.63;5.60;;;;;;;8.96;52.36;100784.28;6226111;28;20236;-56
2021/04/07 14:14:57;;;;;;;11.87;2.67;;;;;;;8.71;51.92;100805.13;6228038;28;20236;-53
2021/04/07 14:18:18;;;;;;;8.53;2.87;;;;;;;8.85;52.79;100798.16;6245766;28;20240;-55
2021/04/07 14:21:39;;;;;;;10.33;3.03;;;;;;;9.40;51.66;100791.91;6225705;28;20228;-54
2021/04/07 14:24:59;;;;;;;9.37;3.30;;;;;;;8.15;54.98;100813.75;6233018;28;20233;-56
2021/04/07 14:28:20;;;;;;;7.10;1.53;;;;;;;7.92;55.90;100817.16;6228824;28;20232;-52
2021/04/07 14:31:43;;;;;;;5.33;1.93;;;;;;;7.98;56.34;100814.59;6229784;28;20232;-54
2021/04/07 14:35:04;;;;;;;9.00;3.30;;;;;;;9.25;52.92;100808.44;6228163;28;20232;-55
2021/04/07 14:38:26;;;;;;;2.80;1.33;;;;;;;8.60;54.11;100825.88;6228026;28;20257;-54
2021/04/07 14:41:46;;;;;;;7.97;2.43;;;;;;;7.87;56.91;100824.06;6229470;28;20233;-55
2021/04/07 14:45:08;;;;;;;9.43;3.03;;;;;;;7.61;58.39;100832.66;6223215;28;20546;-55
2021/04/07 14:48:29;;;;;;;4.43;2.10;;;;;;;7.57;58.36;100825.72;6228276;28;20228;-56
2021/04/07 14:51:51;;;;;;;4.67;2.00;;;;;;;9.38;53.05;100813.56;6232677;28;20506;-57
2021/04/07 14:55:14;;;;;;;9.10;2.10;;;;;;;9.59;52.33;100817.81;6235712;28;20526;-56
2021/04/07 14:58:34;;;;;;;6.17;2.10;;;;;;;9.28;51.41;100828.34;6238239;28;20228;-52
2021/04/07 15:01:55;;;;;;;4.83;1.83;;;;;;;8.97;52.02;100827.56;6226026;28;20229;-54
2021/04/07 15:05:16;;;;;;;5.87;2.07;;;;;;;8.13;55.52;100831.91;6231538;28;20236;-52
2021/04/07 15:08:37;;;;;;;6.50;2.20;;;;;;;8.50;56.22;100842.34;6222033;28;20312;-52
2021/04/07 15:11:58;;;;;;;4.60;2.13;;;;;;;8.53;56.01;100841.47;6218539;28;20240;-56
2021/04/07 15:15:19;;;;;;;3.60;1.37;;;;;;;9.42;55.16;100836.97;6226534;28;20487;-57
2021/04/07 15:18:40;;;;;;;9.83;2.47;;;;;;;9.97;52.64;100848.81;6227319;28;20816;-54
2021/04/07 15:22:01;;;;;;;7.23;3.27;;;;;;;8.58;54.25;100856.16;6226105;28;20617;-51
2021/04/07 15:25:28;;;;;;;5.60;1.33;;;;;;;8.21;55.61;100860.44;6235126;28;20224;-54
2021/04/07 15:28:50;;;;;;;3.60;2.90;;;;;;;8.48;53.57;100865.69;6238215;28;20577;-53
2021/04/07 15:32:11;;;;;;;3.60;1.90;;;;;;;8.71;52.54;100870.03;6226711;28;20229;-53
2021/04/07 15:35:32;;;;;;;4.13;2.80;;;;;;;8.89;54.09;100876.06;6220999;28;20264;-53
2021/04/07 15:38:53;;;;;;;6.10;1.60;;;;;;;8.72;56.29;100884.72;6227844;28;20680;-51
2021/04/07 15:42:14;;;;;;;2.77;1.07;;;;;;;8.80;56.80;100888.19;6237394;28;20236;-56
2021/04/07 15:45:35;;;;;;;4.33;1.50;;;;;;;9.36;54.91;100875.94;6230693;28;20228;-55
2021/04/07 15:48:56;;;;;;;1.83;1.10;;;;;;;10.50;51.99;100900.56;6231143;28;20236;-52
2021/04/07 15:52:18;;;;;;;5.53;1.50;;;;;;;9.49;51.35;100884.59;6237509;28;20502;-53